Aérodrome :
LOGIN :

S'inscrire | Disclaimer

   EN    FR    IT 

 










Légende :    VFR   VFR Marginal   IFR   IFR Intensif   IFR Très Intensif
Visi : 
Plafond : 
>= 8 km
>= 3000ft
5 à 8 km
1000 à 3000 ft
1500m à 5 km
500 à 1000 ft
800 à 1500m
200 à 500 ft
< 800m
< 200 ft
Symboles :   Orages  Brouillard  Fortes neiges  Fortes précipitations  Vent > 20 kt
SIGMETs :   Divers  Orages  Givrage  Turbulence  Onde Orograph.  Cendres Volcan.






- Altitude de l'aérodrome : 856 ft
- Code IATA : VGO


LEVX - Vigo Peinador

DERNIER METAR :
  • 292100Z 19008KT 9999 BKN008 OVC022 13/12 Q1021 NOSIG

METARs EXPIRÉS :
  • 292030Z 18007KT 130V210 8000 BKN011 OVC025 13/12 Q1021 NOSIG
  • 292000Z 18007KT 110V230 8000 BKN015 OVC025 13/12 Q1021 NOSIG
  • 291930Z 20007KT 140V240 8000 BKN015 OVC035 13/12 Q1021 NOSIG
  • 291900Z 19008KT 160V220 8000 BCFG BKN015 OVC030 13/12 Q1021 NOSIG
  • 291830Z 21009KT 150V240 8000 BCFG BKN017 OVC030 14/12 Q1021 NOSIG

TAF TAF LEVX
Valide du 29 à 18h jusqu'au 30 à 18h UTC


291700Z 2918/3018 22009KT 8000 BKN015 TX14/3015Z TN10/3005Z
PROB40
TEMPO 2918/3001 RA
PROB30
TEMPO 3000/3010 21015G26KT
TEMPO 3001/3018 3000 RA BKN005
PROB30
TEMPO 2921/3007 0800 BCFG



MET'MAP, la Météo Aéronautique d'un coup d'oeil ! - Copyright ORBIFLY Décembre 2007 - Disclaimer

ORBIFLY MET'MAP TEAM :

Programmation & Développement : Alexandra Zaïnal
Sur une idée originale de : Baudouin d'Aumeries
Assistance à la programmation : Marc-Olivier Méhu
Soutien technique & logistique : Manuel Goepfert

Contact : metmap@orbifly.com




SOURCES & CREDITS :

   NOAA